Kiruna, Sweden

6:13 AM CEST on September 28, 2016 (GMT +0200)
Kiruna | | Change Station

Elev 1483 ft 67.82 °N, 20.34 °E | Updated 23 minutes ago

Mostly Cloudy
Mostly Cloudy
48 °F
Feels Like 48 °F
N
10
Wind Variable Wind from SSE

Today
High -- | Low -- °F
--% Chance of Precip.
Yesterday
High -- | Low -- °F
Precip. -- in
Pressure 29.59 in
Visibility 6.2 miles
Clouds Scattered Clouds 1700 ft
Mostly Cloudy 2700 ft
Dew Point 45 °F
Humidity 87%
Rainfall 0.00 in
Snow Depth Not available.
6:41 AM 6:14 PM
Waning Crescent, 8% visible
METAR ESNQ 280350Z 15009KT 9999 SCT017 BKN027 09/07 Q1002
Pressure 29.59 in
Visibility 6.2 miles
Clouds Scattered Clouds 1700 ft
Mostly Cloudy 2700 ft
Dew Point 45 °F
Humidity 87%
Rainfall 0.00 in
Snow Depth Not available.
6:41 AM 6:14 PM
Waning Crescent, 8% visible
METAR ESNQ 280350Z 15009KT 9999 SCT017 BKN027 09/07 Q1002

10-Day Weather Forecast

×

Almanac

Astronomy

Sep. 28, 2016 Rise Set
Actual Time
Civil Twilight
Nautical Twilight
Astronomical Twilight
Moon
Length of Visible Light
Length of Day
Tomorrow will be .
, % of the Moon is Illuminated

Today's Extremes

Country Highs Country Lows

Community

WunderPhotos

Upload Photos

1,942,209 photos uploaded!

WunderBlog® & News

Nearby

Air Quality

  Air Quality AQ Index Pollutant
Not available.

Snow Depth

Station Depth Elevation

Earthquake Activity

City Distance Mag. Time & Date
Minimum magnitude displayed is 2.5.

Coastal Water Temperatures

Place Temperature

Stations

Nearby Weather Stations

Station Location Temp. Windchill Dew Point Humidity Wind Precip. Elev Updated Type